createdAt,value
2018-08-16T00:00:17.576Z,100.00
2018-08-16T00:02:47.029Z,100.00
2018-08-16T00:05:15.963Z,100.00
2018-08-16T00:07:45.220Z,100.00
2018-08-16T00:10:15.610Z,100.00
2018-08-16T00:12:45.812Z,100.00
2018-08-16T00:15:15.554Z,100.00
2018-08-16T00:17:44.141Z,100.00
2018-08-16T00:20:13.271Z,100.00
2018-08-16T00:22:42.396Z,100.00
2018-08-16T00:25:11.629Z,100.00
2018-08-16T00:27:40.525Z,100.00
2018-08-16T00:30:13.976Z,100.00
2018-08-16T00:32:45.526Z,100.00
2018-08-16T00:35:15.263Z,100.00
2018-08-16T00:37:44.076Z,100.00
2018-08-16T00:40:15.588Z,100.00
2018-08-16T00:42:45.156Z,100.00
2018-08-16T00:45:14.560Z,100.00
2018-08-16T00:47:43.217Z,100.00
2018-08-16T00:50:14.142Z,100.00
2018-08-16T00:52:43.036Z,100.00
2018-08-16T00:55:13.180Z,100.00
2018-08-16T00:57:42.137Z,100.00
2018-08-16T01:00:12.981Z,100.00
2018-08-16T01:02:41.723Z,100.00
2018-08-16T01:05:10.828Z,100.00
2018-08-16T01:07:39.668Z,100.00
2018-08-16T01:10:10.416Z,100.00
2018-08-16T01:12:39.079Z,100.00
2018-08-16T01:15:09.914Z,100.00
2018-08-16T01:17:38.548Z,100.00
2018-08-16T01:20:07.815Z,100.00
2018-08-16T01:22:36.648Z,100.00
2018-08-16T01:25:06.613Z,100.00
2018-08-16T01:27:35.481Z,100.00
2018-08-16T01:30:05.184Z,100.00
2018-08-16T01:32:33.789Z,100.00
2018-08-16T01:35:02.580Z,100.00
2018-08-16T01:37:32.372Z,100.00
2018-08-16T01:40:00.952Z,100.00
2018-08-16T01:42:29.805Z,100.00
2018-08-16T01:44:58.623Z,100.00
2018-08-16T01:47:28.236Z,100.00
2018-08-16T01:49:57.015Z,100.00
2018-08-16T01:52:25.852Z,100.00
2018-08-16T01:54:54.523Z,100.00
2018-08-16T01:57:23.333Z,100.00
2018-08-16T01:59:51.957Z,100.00
2018-08-16T02:02:20.789Z,100.00
2018-08-16T02:04:49.593Z,100.00
2018-08-16T02:07:19.383Z,100.00
2018-08-16T02:09:48.284Z,100.00
2018-08-16T02:12:16.912Z,100.00
2018-08-16T02:14:45.501Z,100.00
2018-08-16T02:17:14.356Z,100.00
2018-08-16T02:19:43.171Z,100.00
2018-08-16T02:22:11.846Z,100.00
2018-08-16T02:24:40.419Z,100.00
2018-08-16T02:27:09.047Z,100.00
2018-08-16T02:29:37.822Z,100.00
2018-08-16T02:32:06.517Z,100.00
2018-08-16T02:34:35.152Z,100.00
2018-08-16T02:37:03.960Z,100.00
2018-08-16T02:39:32.603Z,100.00
2018-08-16T02:42:01.561Z,100.00
2018-08-16T02:44:30.443Z,100.00
2018-08-16T02:46:59.048Z,100.00
2018-08-16T02:49:27.692Z,100.00
2018-08-16T02:51:56.516Z,100.00
2018-08-16T02:54:25.247Z,100.00
2018-08-16T02:56:53.869Z,100.00
2018-08-16T02:59:22.617Z,100.00
2018-08-16T03:01:51.397Z,100.00
2018-08-16T03:04:20.612Z,100.00
2018-08-16T03:06:49.624Z,100.00
2018-08-16T03:09:18.356Z,100.00
2018-08-16T03:11:47.369Z,100.00
2018-08-16T03:14:15.983Z,100.00
2018-08-16T03:16:44.715Z,100.00
2018-08-16T03:19:13.527Z,100.00
2018-08-16T03:21:42.293Z,100.00
2018-08-16T03:24:11.270Z,100.00
2018-08-16T03:26:40.169Z,100.00
2018-08-16T03:29:08.775Z,100.00
2018-08-16T03:31:37.465Z,100.00
2018-08-16T03:34:06.443Z,100.00
2018-08-16T03:36:35.167Z,100.00
2018-08-16T03:39:05.288Z,100.00
2018-08-16T03:41:33.972Z,100.00
2018-08-16T03:44:02.856Z,100.00
2018-08-16T03:46:31.661Z,100.00
2018-08-16T03:49:00.416Z,100.00
2018-08-16T03:51:29.144Z,100.00
2018-08-16T03:53:57.812Z,100.00
2018-08-16T03:56:26.604Z,100.00
2018-08-16T03:58:55.184Z,100.00
2018-08-16T04:04:19.362Z,100.00
2018-08-16T04:06:48.142Z,100.00
2018-08-16T04:09:16.702Z,100.00
2018-08-16T04:11:45.396Z,100.00
2018-08-16T04:14:14.254Z,100.00
2018-08-16T04:16:43.223Z,100.00
2018-08-16T04:19:11.935Z,100.00
2018-08-16T04:21:40.842Z,100.00
2018-08-16T04:24:09.535Z,100.00
2018-08-16T04:26:38.298Z,100.00
2018-08-16T04:29:07.315Z,100.00
2018-08-16T04:31:35.962Z,100.00
2018-08-16T04:34:04.690Z,100.00
2018-08-16T04:36:34.992Z,100.00
2018-08-16T04:39:03.850Z,100.00
2018-08-16T04:41:32.614Z,100.00
2018-08-16T04:44:01.681Z,100.00
2018-08-16T04:46:30.315Z,100.00
2018-08-16T04:48:59.018Z,100.00
2018-08-16T04:51:27.725Z,100.00
2018-08-16T04:53:56.372Z,100.00
2018-08-16T04:56:25.253Z,100.00
2018-08-16T04:58:54.149Z,100.00
2018-08-16T05:01:23.302Z,100.00
2018-08-16T05:03:52.296Z,100.00
2018-08-16T05:06:21.128Z,100.00
2018-08-16T05:08:49.783Z,100.00
2018-08-16T05:11:19.298Z,100.00
2018-08-16T05:13:47.958Z,100.00
2018-08-16T05:16:16.797Z,100.00
2018-08-16T05:18:45.659Z,100.00
2018-08-16T05:21:14.543Z,100.00
2018-08-16T05:23:43.117Z,100.00
2018-08-16T05:26:11.836Z,100.00
2018-08-16T05:28:40.607Z,100.00
2018-08-16T05:31:09.321Z,100.00
2018-08-16T05:33:37.971Z,100.00
2018-08-16T05:36:06.815Z,100.00
2018-08-16T05:38:35.418Z,100.00
2018-08-16T05:41:04.463Z,100.00
2018-08-16T05:43:33.318Z,100.00
2018-08-16T05:46:02.243Z,100.00
2018-08-16T05:48:30.961Z,100.00
2018-08-16T05:50:59.603Z,100.00
2018-08-16T05:53:28.710Z,100.00
2018-08-16T05:55:57.613Z,97.91
2018-08-16T05:58:26.381Z,95.86
2018-08-16T06:00:55.002Z,94.60
2018-08-16T06:03:23.647Z,92.22
2018-08-16T06:05:52.555Z,89.35
2018-08-16T06:08:21.466Z,89.21
2018-08-16T06:10:50.548Z,88.39
2018-08-16T06:13:19.260Z,88.17
2018-08-16T06:15:47.874Z,87.88
2018-08-16T06:18:16.666Z,86.69
2018-08-16T06:20:45.278Z,85.46
2018-08-16T06:23:14.369Z,86.08
2018-08-16T06:25:43.102Z,85.28
2018-08-16T06:28:11.891Z,84.68
2018-08-16T06:30:40.554Z,83.29
2018-08-16T06:33:15.758Z,81.89
2018-08-16T06:35:44.583Z,82.34
2018-08-16T06:38:13.302Z,81.77
2018-08-16T06:40:42.079Z,80.84
2018-08-16T06:43:10.978Z,79.63
2018-08-16T06:45:39.848Z,79.27
2018-08-16T06:48:08.683Z,78.67
2018-08-16T06:50:37.516Z,77.63
2018-08-16T06:53:06.179Z,77.70
2018-08-16T06:55:34.937Z,77.38
2018-08-16T06:58:04.209Z,77.32
2018-08-16T07:00:32.827Z,77.01
2018-08-16T07:03:01.753Z,76.33
2018-08-16T07:05:30.521Z,75.48
2018-08-16T07:07:59.222Z,74.43
2018-08-16T07:10:27.899Z,74.23
2018-08-16T07:13:00.399Z,74.80
2018-08-16T07:15:29.743Z,73.90
2018-08-16T07:17:58.891Z,73.64
2018-08-16T07:20:27.934Z,72.45
2018-08-16T07:22:56.759Z,71.81
2018-08-16T07:25:25.663Z,71.09
2018-08-16T07:27:54.365Z,70.04
2018-08-16T07:30:23.346Z,68.77
2018-08-16T07:32:52.135Z,69.03
2018-08-16T07:35:21.041Z,68.32
2018-08-16T07:37:50.003Z,67.49
2018-08-16T07:40:18.860Z,67.01
2018-08-16T07:42:47.556Z,66.74
2018-08-16T07:45:16.178Z,65.99
2018-08-16T07:47:45.084Z,65.80
2018-08-16T07:50:13.873Z,65.72
2018-08-16T07:52:42.633Z,65.37
2018-08-16T07:55:11.642Z,64.26
2018-08-16T07:57:40.798Z,63.95
2018-08-16T08:00:15.957Z,63.86
2018-08-16T08:02:45.043Z,63.89
2018-08-16T08:05:13.702Z,63.90
2018-08-16T08:07:42.703Z,63.33
2018-08-16T08:10:11.427Z,63.07
2018-08-16T08:12:40.196Z,62.88
2018-08-16T08:15:11.581Z,62.92
2018-08-16T08:17:41.282Z,62.21
2018-08-16T08:20:13.149Z,61.43
2018-08-16T08:22:42.281Z,61.08
2018-08-16T08:25:11.687Z,61.55
2018-08-16T08:27:40.410Z,60.09
2018-08-16T08:30:12.664Z,60.28
2018-08-16T08:32:41.932Z,59.26
2018-08-16T08:35:10.990Z,59.62
2018-08-16T08:37:50.787Z,58.32
2018-08-16T08:40:26.296Z,58.59
2018-08-16T08:42:55.294Z,57.90
2018-08-16T08:45:24.370Z,58.95
2018-08-16T08:47:56.230Z,56.65
2018-08-16T08:50:25.459Z,56.24
2018-08-16T08:52:58.599Z,55.77
2018-08-16T08:55:38.611Z,56.07
2018-08-16T08:58:18.383Z,55.00
2018-08-16T09:00:47.107Z,54.05
2018-08-16T09:03:15.893Z,54.78
2018-08-16T09:05:44.783Z,54.79
2018-08-16T09:08:13.693Z,54.52
2018-08-16T09:10:54.896Z,54.08
2018-08-16T09:13:35.939Z,52.53
2018-08-16T09:16:12.133Z,53.57
2018-08-16T09:18:41.551Z,52.03
2018-08-16T09:21:14.146Z,51.52
2018-08-16T09:23:49.217Z,50.91
2018-08-16T09:26:23.443Z,51.72
2018-08-16T09:28:52.369Z,51.08
2018-08-16T09:31:32.734Z,51.18
2018-08-16T09:34:36.127Z,50.26
2018-08-16T09:37:04.754Z,50.74
2018-08-16T09:39:33.521Z,51.48
2018-08-16T09:42:02.150Z,49.70
2018-08-16T09:44:30.752Z,49.03
2018-08-16T09:47:11.351Z,50.55
2018-08-16T09:49:49.963Z,51.93
2018-08-16T09:52:19.643Z,49.77
2018-08-16T09:54:52.474Z,48.60
2018-08-16T09:57:21.498Z,49.12
2018-08-16T09:59:50.122Z,48.17
2018-08-16T10:02:18.880Z,47.75
2018-08-16T10:04:47.510Z,47.21
2018-08-16T10:07:16.296Z,47.24
2018-08-16T10:09:44.999Z,47.68
2018-08-16T10:12:14.016Z,46.27
2018-08-16T10:14:42.995Z,46.64
2018-08-16T10:17:11.893Z,46.34
2018-08-16T10:19:40.562Z,45.74
2018-08-16T10:22:09.266Z,46.17
2018-08-16T10:24:38.124Z,46.21
2018-08-16T10:27:07.011Z,46.35
2018-08-16T10:29:35.524Z,46.27
2018-08-16T10:32:04.834Z,44.31
2018-08-16T10:34:33.544Z,43.99
2018-08-16T10:37:02.503Z,43.56
2018-08-16T10:39:31.065Z,43.46
2018-08-16T10:41:59.973Z,43.22
2018-08-16T10:44:28.605Z,41.90
2018-08-16T10:46:57.538Z,41.03
2018-08-16T10:49:26.239Z,39.35
2018-08-16T10:52:01.731Z,38.87
2018-08-16T10:54:30.412Z,38.54
2018-08-16T10:56:59.247Z,37.89
2018-08-16T10:59:28.127Z,37.24
2018-08-16T11:01:56.880Z,37.54
2018-08-16T11:04:25.509Z,38.25
2018-08-16T11:06:54.196Z,37.17
2018-08-16T11:09:22.884Z,36.72
2018-08-16T11:11:51.496Z,36.21
2018-08-16T11:14:20.248Z,35.85
2018-08-16T11:16:49.928Z,37.59
2018-08-16T11:19:18.819Z,34.08
2018-08-16T11:21:48.117Z,34.44
2018-08-16T11:24:16.881Z,35.79
2018-08-16T11:26:45.623Z,34.98
2018-08-16T11:29:14.676Z,34.43
2018-08-16T11:31:43.395Z,32.49
2018-08-16T11:34:12.007Z,33.89
2018-08-16T11:36:40.808Z,34.08
2018-08-16T11:39:09.695Z,31.68
2018-08-16T11:41:38.399Z,33.32
2018-08-16T11:44:07.795Z,31.29
2018-08-16T11:46:36.481Z,32.60
2018-08-16T11:49:05.402Z,34.30
2018-08-16T11:51:34.092Z,33.07
2018-08-16T11:54:02.814Z,32.42
2018-08-16T11:56:31.434Z,33.44
2018-08-16T11:59:00.214Z,30.76
2018-08-16T12:01:28.875Z,29.01
2018-08-16T12:03:57.879Z,30.67
2018-08-16T12:06:26.551Z,30.57
2018-08-16T12:08:55.092Z,32.12
2018-08-16T12:11:23.776Z,30.64
2018-08-16T12:13:52.619Z,31.90
2018-08-16T12:16:21.305Z,31.94
2018-08-16T12:18:50.178Z,30.91
2018-08-16T12:21:18.866Z,31.45
2018-08-16T12:23:47.759Z,30.49
2018-08-16T12:26:16.458Z,29.37
2018-08-16T12:28:45.275Z,29.92
2018-08-16T12:31:13.956Z,28.58
2018-08-16T12:33:42.764Z,31.35
2018-08-16T12:36:11.467Z,29.74
2018-08-16T12:38:40.262Z,30.81
2018-08-16T12:41:09.065Z,29.82
2018-08-16T12:43:37.900Z,28.79
2018-08-16T12:46:06.751Z,30.39
2018-08-16T12:48:35.736Z,27.83
2018-08-16T12:51:04.441Z,27.72
2018-08-16T12:53:33.109Z,30.17
2018-08-16T12:56:01.821Z,29.54
2018-08-16T12:58:30.727Z,27.18
2018-08-16T13:00:59.339Z,29.22
2018-08-16T13:03:28.050Z,28.21
2018-08-16T13:05:56.660Z,27.81
2018-08-16T13:08:25.538Z,26.99
2018-08-16T13:10:54.331Z,26.44
2018-08-16T13:13:23.128Z,27.62
2018-08-16T13:15:51.931Z,27.92
2018-08-16T13:18:22.010Z,25.73
2018-08-16T13:20:50.820Z,24.70
2018-08-16T13:23:19.992Z,24.65
2018-08-16T13:25:48.988Z,25.04
2018-08-16T13:28:17.787Z,26.64
2018-08-16T13:30:47.211Z,26.33
2018-08-16T13:33:16.083Z,24.92
2018-08-16T13:35:44.675Z,25.66
2018-08-16T13:38:13.320Z,25.74
2018-08-16T13:40:42.130Z,24.21
2018-08-16T13:43:10.842Z,24.58
2018-08-16T13:45:39.642Z,24.53
2018-08-16T13:48:08.314Z,24.82
2018-08-16T13:50:37.211Z,24.59
2018-08-16T13:53:07.239Z,24.23
2018-08-16T13:55:36.400Z,24.10
2018-08-16T13:58:05.560Z,24.14
2018-08-16T14:00:34.227Z,24.19
2018-08-16T14:03:03.196Z,24.35
2018-08-16T14:05:31.932Z,23.53
2018-08-16T14:08:00.611Z,23.54
2018-08-16T14:10:29.503Z,24.04
2018-08-16T14:12:58.127Z,22.71
2018-08-16T14:15:27.025Z,23.09
2018-08-16T14:17:55.635Z,21.61
2018-08-16T14:20:24.278Z,22.49
2018-08-16T14:22:52.848Z,22.10
2018-08-16T14:25:21.746Z,22.08
2018-08-16T14:27:50.670Z,23.45
2018-08-16T14:30:19.301Z,23.30
2018-08-16T14:32:48.067Z,22.49
2018-08-16T14:35:16.839Z,22.22
2018-08-16T14:37:45.692Z,26.84
2018-08-16T14:40:15.531Z,28.10
2018-08-16T14:42:44.123Z,28.96
2018-08-16T14:45:12.827Z,30.78
2018-08-16T14:47:42.354Z,31.80
2018-08-16T14:50:10.985Z,32.66
2018-08-16T14:52:39.607Z,32.62
2018-08-16T14:55:08.735Z,32.42
2018-08-16T14:57:37.719Z,31.05
2018-08-16T15:00:07.731Z,32.00
2018-08-16T15:02:36.982Z,33.61
2018-08-16T15:05:06.736Z,33.03
2018-08-16T15:07:35.376Z,32.95
2018-08-16T15:10:04.919Z,33.26
2018-08-16T15:12:33.899Z,32.36
2018-08-16T15:15:02.659Z,33.79
2018-08-16T15:17:31.386Z,33.71
2018-08-16T15:20:00.079Z,33.04
2018-08-16T15:22:28.866Z,33.73
2018-08-16T15:24:57.582Z,34.82
2018-08-16T15:27:26.778Z,34.05
2018-08-16T15:29:55.439Z,34.54
2018-08-16T15:32:24.246Z,33.59
2018-08-16T15:34:52.871Z,34.41
2018-08-16T15:37:21.707Z,34.68
2018-08-16T15:39:50.704Z,34.50
2018-08-16T15:42:19.624Z,33.99
2018-08-16T15:44:48.519Z,34.79
2018-08-16T15:47:17.570Z,35.21
2018-08-16T15:49:46.502Z,34.68
2018-08-16T15:52:15.201Z,35.77
2018-08-16T15:54:43.938Z,34.83
2018-08-16T15:57:12.723Z,34.36
2018-08-16T15:59:41.659Z,34.30
2018-08-16T16:02:10.494Z,35.08
2018-08-16T16:04:39.222Z,34.27
2018-08-16T16:07:07.879Z,34.79
2018-08-16T16:09:36.829Z,35.58
2018-08-16T16:12:05.629Z,35.19
2018-08-16T16:14:34.259Z,34.86
2018-08-16T16:17:03.090Z,34.99
2018-08-16T16:19:31.753Z,35.53
2018-08-16T16:22:00.401Z,35.85
2018-08-16T16:24:29.122Z,35.03
2018-08-16T16:26:57.946Z,35.32
2018-08-16T16:29:27.310Z,35.72
2018-08-16T16:31:56.633Z,35.87
2018-08-16T16:34:26.377Z,36.05
2018-08-16T16:36:55.033Z,35.68
2018-08-16T16:39:24.566Z,35.12
2018-08-16T16:41:53.880Z,35.94
2018-08-16T16:44:22.711Z,36.08
2018-08-16T16:46:51.771Z,36.31
2018-08-16T16:49:24.025Z,35.82
2018-08-16T16:51:54.133Z,36.93
2018-08-16T16:54:22.793Z,36.80
2018-08-16T16:56:51.889Z,38.01
2018-08-16T16:59:20.673Z,37.20
2018-08-16T17:01:49.505Z,35.78
2018-08-16T17:04:18.100Z,36.42
2018-08-16T17:06:46.926Z,36.67
2018-08-16T17:09:15.704Z,36.06
2018-08-16T17:11:44.743Z,36.80
2018-08-16T17:14:13.429Z,36.41
2018-08-16T17:16:42.810Z,38.17
2018-08-16T17:19:11.523Z,37.43
2018-08-16T17:21:40.161Z,37.28
2018-08-16T17:24:09.048Z,37.92
2018-08-16T17:26:38.105Z,39.03
2018-08-16T17:29:07.312Z,38.35
2018-08-16T17:31:36.155Z,38.76
2018-08-16T17:34:04.786Z,38.91
2018-08-16T17:36:33.655Z,39.89
2018-08-16T17:39:02.470Z,39.54
2018-08-16T17:41:31.241Z,39.30
2018-08-16T17:43:59.982Z,40.56
2018-08-16T17:46:29.488Z,40.51
2018-08-16T17:48:58.372Z,41.16
2018-08-16T17:51:27.717Z,42.04
2018-08-16T17:53:57.118Z,41.23
2018-08-16T17:56:26.330Z,41.48
2018-08-16T17:58:55.033Z,42.07
2018-08-16T18:01:23.718Z,42.51
2018-08-16T18:03:52.490Z,42.26
2018-08-16T18:06:21.334Z,42.21
2018-08-16T18:08:50.049Z,43.26
2018-08-16T18:11:19.227Z,43.05
2018-08-16T18:13:47.892Z,43.78
2018-08-16T18:16:16.682Z,43.37
2018-08-16T18:18:45.534Z,44.14
2018-08-16T18:21:14.282Z,44.58
2018-08-16T18:23:43.102Z,45.34
2018-08-16T18:26:11.915Z,47.50
2018-08-16T18:28:40.636Z,46.18
2018-08-16T18:31:09.451Z,47.17
2018-08-16T18:33:38.162Z,45.89
2018-08-16T18:36:07.096Z,46.42
2018-08-16T18:38:35.867Z,45.88
2018-08-16T18:41:04.691Z,48.24
2018-08-16T18:43:33.556Z,52.14
2018-08-16T18:46:02.464Z,48.80
2018-08-16T18:48:31.324Z,47.48
2018-08-16T18:51:00.456Z,52.46
2018-08-16T18:53:29.266Z,47.79
2018-08-16T18:55:58.232Z,48.41
2018-08-16T18:58:26.955Z,47.50
2018-08-16T19:00:56.554Z,48.05
2018-08-16T19:03:25.506Z,48.71
2018-08-16T19:05:54.395Z,47.97
2018-08-16T19:08:23.290Z,49.29
2018-08-16T19:10:52.231Z,50.45
2018-08-16T19:13:20.892Z,51.58
2018-08-16T19:15:49.545Z,51.37
2018-08-16T19:18:18.196Z,50.76
2018-08-16T19:20:47.926Z,53.94
2018-08-16T19:23:16.850Z,54.51
2018-08-16T19:25:45.937Z,57.14
2018-08-16T19:28:14.630Z,57.38
2018-08-16T19:30:43.712Z,59.79
2018-08-16T19:33:12.792Z,60.34
2018-08-16T19:35:41.724Z,60.48
2018-08-16T19:38:10.436Z,60.27
2018-08-16T19:40:39.270Z,60.33
2018-08-16T19:43:08.574Z,60.40
2018-08-16T19:45:37.530Z,60.53
2018-08-16T19:48:06.790Z,60.50
2018-08-16T19:50:35.510Z,60.96
2018-08-16T19:53:05.607Z,61.65
2018-08-16T19:55:34.316Z,60.40
2018-08-16T19:58:03.130Z,60.92
2018-08-16T20:00:32.068Z,60.45
2018-08-16T20:03:00.934Z,60.03
2018-08-16T20:05:29.817Z,61.12
2018-08-16T20:07:58.642Z,63.38
2018-08-16T20:10:27.324Z,62.20
2018-08-16T20:12:55.957Z,62.42
2018-08-16T20:15:25.778Z,62.56
2018-08-16T20:17:57.061Z,63.81
2018-08-16T20:20:27.281Z,64.11
2018-08-16T20:22:56.912Z,62.97
2018-08-16T20:25:26.065Z,62.39
2018-08-16T20:27:54.811Z,64.69
2018-08-16T20:30:26.098Z,64.41
2018-08-16T20:32:54.725Z,65.88
2018-08-16T20:35:24.679Z,66.19
2018-08-16T20:37:54.748Z,64.84
2018-08-16T20:40:24.573Z,64.34
2018-08-16T20:42:53.665Z,65.22
2018-08-16T20:45:22.330Z,67.02
2018-08-16T20:47:51.057Z,65.28
2018-08-16T20:50:20.088Z,65.24
2018-08-16T20:52:48.909Z,66.51
2018-08-16T20:55:17.922Z,67.13
2018-08-16T20:57:46.641Z,67.76
2018-08-16T21:00:15.378Z,67.49
2018-08-16T21:02:44.182Z,68.46
2018-08-16T21:05:13.066Z,67.62
2018-08-16T21:07:41.788Z,68.59
2018-08-16T21:10:11.929Z,68.70
2018-08-16T21:12:40.521Z,68.63
2018-08-16T21:15:09.543Z,68.14
2018-08-16T21:17:38.437Z,69.07
2018-08-16T21:20:07.370Z,69.40
2018-08-16T21:22:36.568Z,70.13
2018-08-16T21:25:06.029Z,70.87
2018-08-16T21:27:35.437Z,70.94
2018-08-16T21:30:05.460Z,71.76
2018-08-16T21:32:34.301Z,72.67
2018-08-16T21:35:03.233Z,71.35
2018-08-16T21:37:33.943Z,72.12
2018-08-16T21:40:02.940Z,71.84
2018-08-16T21:42:32.403Z,71.13
2018-08-16T21:45:01.315Z,68.39
2018-08-16T21:47:30.729Z,69.13
2018-08-16T21:49:59.730Z,70.25
2018-08-16T21:52:31.097Z,66.15
2018-08-16T21:55:00.890Z,66.25
2018-08-16T21:57:29.553Z,67.20
2018-08-16T21:59:58.214Z,68.38
2018-08-16T22:02:27.346Z,61.90
2018-08-16T22:04:56.740Z,67.15
2018-08-16T22:08:30.544Z,65.29
2018-08-16T22:10:59.478Z,61.82
2018-08-16T22:13:28.403Z,61.60
2018-08-16T22:15:57.564Z,62.53
2018-08-16T22:18:26.539Z,61.05
2018-08-16T22:20:55.438Z,60.13
2018-08-16T22:23:24.396Z,59.20
2018-08-16T22:25:53.335Z,59.39
2018-08-16T22:28:22.223Z,61.04
2018-08-16T22:30:50.830Z,62.71
2018-08-16T22:33:20.038Z,60.63
2018-08-16T22:35:49.350Z,58.92
2018-08-16T22:38:18.465Z,59.65
2018-08-16T22:40:47.249Z,59.06
2018-08-16T22:43:15.991Z,59.28
2018-08-16T22:45:44.654Z,58.77
2018-08-16T22:48:13.444Z,58.53
2018-08-16T22:50:43.424Z,61.33
2018-08-16T22:53:12.004Z,59.12
2018-08-16T22:55:40.796Z,59.57
2018-08-16T22:58:09.370Z,60.08
2018-08-16T23:00:38.113Z,59.46
2018-08-16T23:03:07.008Z,58.30
2018-08-16T23:05:35.776Z,59.17
2018-08-16T23:08:04.382Z,58.68
2018-08-16T23:10:33.017Z,59.62
2018-08-16T23:13:01.763Z,60.07
2018-08-16T23:15:30.488Z,61.49
2018-08-16T23:17:59.354Z,60.21
2018-08-16T23:20:28.151Z,65.55
2018-08-16T23:22:56.782Z,66.24
2018-08-16T23:25:25.528Z,66.58
2018-08-16T23:27:54.250Z,64.98
2018-08-16T23:30:22.891Z,67.46
2018-08-16T23:32:51.596Z,69.18
2018-08-16T23:35:21.285Z,67.34
2018-08-16T23:37:49.862Z,67.58
2018-08-16T23:40:18.667Z,66.21
2018-08-16T23:42:47.406Z,70.18
2018-08-16T23:45:16.590Z,68.89
2018-08-16T23:48:48.333Z,69.68
2018-08-16T23:51:17.105Z,69.59
2018-08-16T23:53:45.672Z,69.90
2018-08-16T23:56:14.560Z,69.34
2018-08-16T23:58:43.537Z,69.10
